Time;durP1;ratioP1;P1;durP2;ratioP2;P2;SDS_P1;SDS_P2;PMS_P1;PMS_P2;Temp;Humidity;BMP_temperature;BMP_pressure;BME280_temperature;BME280_humidity;BME280_pressure;Samples;Min_cycle;Max_cycle;Signal;HPM_P1;HPM_P2
2023/12/04 00:01:45;;;;;;;0.10;0.10;;;;;;;;;;4985680;28;20114;-74
2023/12/04 00:04:12;;;;;;;0.10;0.10;;;;;;;;;;4983431;28;20051;-74
2023/12/04 00:06:38;;;;;;;0.10;0.10;;;;;;;;;;4973130;28;20052;-74
2023/12/04 00:09:05;;;;;;;0.10;0.10;;;;;;;;;;4978733;28;20062;-74
2023/12/04 00:11:32;;;;;;;0.10;0.10;;;;;;;;;;4980987;28;20137;-74
2023/12/04 00:13:59;;;;;;;0.10;0.10;;;;;;;;;;4986396;28;20468;-74
2023/12/04 00:16:25;;;;;;;0.10;0.10;;;;;;;;;;4988597;28;20059;-74
2023/12/04 00:18:52;;;;;;;0.10;0.10;;;;;;;;;;4984911;28;20058;-74
2023/12/04 00:21:19;;;;;;;0.10;0.10;;;;;;;;;;4982130;28;20090;-74
2023/12/04 00:23:45;;;;;;;0.10;0.10;;;;;;;;;;4979062;28;20054;-74
2023/12/04 00:26:12;;;;;;;0.10;0.10;;;;;;;;;;4979569;28;20062;-74
2023/12/04 00:28:39;;;;;;;0.10;0.10;;;;;;;;;;4985332;28;20063;-74
2023/12/04 00:31:05;;;;;;;0.10;0.10;;;;;;;;;;4984314;28;20142;-74
2023/12/04 00:33:32;;;;;;;0.10;0.10;;;;;;;;;;4971347;28;20054;-75
2023/12/04 00:35:58;;;;;;;0.10;0.10;;;;;;;;;;4970134;28;20059;-74
2023/12/04 00:38:25;;;;;;;0.10;0.10;;;;;;;;;;4979334;28;20569;-74
2023/12/04 00:40:51;;;;;;;0.10;0.10;;;;;;;;;;4983020;28;20047;-74
2023/12/04 00:43:17;;;;;;;0.03;0.03;;;;;;;;;;4973411;28;20065;-74
2023/12/04 00:45:44;;;;;;;0.10;0.10;;;;;;;;;;4980932;28;20139;-74
2023/12/04 00:48:10;;;;;;;0.10;0.10;;;;;;;;;;4982207;28;20142;-74
2023/12/04 00:50:37;;;;;;;4.20;3.85;;;;;;;;;;4974628;28;20059;-74
2023/12/04 00:53:04;;;;;;;0.10;0.10;;;;;;;;;;4979906;28;20090;-74
2023/12/04 00:55:30;;;;;;;0.10;0.10;;;;;;;;;;4981199;28;20065;-74
2023/12/04 00:57:56;;;;;;;0.10;0.10;;;;;;;;;;4977926;28;20054;-74
2023/12/04 01:00:23;;;;;;;0.10;0.10;;;;;;;;;;4979579;28;20064;-74
2023/12/04 01:02:51;;;;;;;0.10;0.10;;;;;;;;;;4973385;28;20055;-74
2023/12/04 01:05:17;;;;;;;0.10;0.10;;;;;;;;;;4975312;28;20068;-74
2023/12/04 01:07:43;;;;;;;0.10;0.10;;;;;;;;;;4980690;28;20083;-74
2023/12/04 01:10:10;;;;;;;0.10;0.10;;;;;;;;;;4983516;28;20057;-74
2023/12/04 01:12:36;;;;;;;0.10;0.10;;;;;;;;;;4985652;28;20078;-74
2023/12/04 01:15:03;;;;;;;0.03;0.03;;;;;;;;;;4978623;28;20858;-75
2023/12/04 01:17:29;;;;;;;0.25;0.25;;;;;;;;;;4970979;28;20055;-74
2023/12/04 01:19:57;;;;;;;0.10;0.10;;;;;;;;;;4977726;28;20524;-74
2023/12/04 01:22:23;;;;;;;0.10;0.10;;;;;;;;;;4976219;28;20061;-74
2023/12/04 01:24:50;;;;;;;0.10;0.10;;;;;;;;;;4985026;28;20055;-74
2023/12/04 01:27:16;;;;;;;0.10;0.10;;;;;;;;;;4966500;28;20526;-74
2023/12/04 01:29:43;;;;;;;0.10;0.10;;;;;;;;;;4972834;28;20107;-74
2023/12/04 01:32:09;;;;;;;0.10;0.10;;;;;;;;;;4982878;28;20580;-74
2023/12/04 01:34:35;;;;;;;0.10;0.10;;;;;;;;;;4974080;28;20494;-74
2023/12/04 01:37:02;;;;;;;0.10;0.10;;;;;;;;;;4985999;28;20163;-74
2023/12/04 01:39:28;;;;;;;0.10;0.10;;;;;;;;;;4978246;28;20073;-74
2023/12/04 01:41:55;;;;;;;0.10;0.10;;;;;;;;;;4981667;28;20059;-74
2023/12/04 01:44:22;;;;;;;0.10;0.10;;;;;;;;;;4978029;28;20121;-74
2023/12/04 01:46:49;;;;;;;0.10;0.10;;;;;;;;;;4981410;28;20051;-74
2023/12/04 01:49:15;;;;;;;0.10;0.10;;;;;;;;;;4982735;28;20134;-74
2023/12/04 01:51:42;;;;;;;0.10;0.10;;;;;;;;;;4971020;28;20058;-74
2023/12/04 01:54:08;;;;;;;0.10;0.10;;;;;;;;;;4976627;28;20512;-74
2023/12/04 01:56:36;;;;;;;0.10;0.10;;;;;;;;;;4982703;28;20061;-74
2023/12/04 01:59:02;;;;;;;0.10;0.10;;;;;;;;;;4989717;28;20149;-74
2023/12/04 02:01:30;;;;;;;0.10;0.10;;;;;;;;;;4983783;28;20110;-74
2023/12/04 02:03:56;;;;;;;0.10;0.10;;;;;;;;;;4976197;28;20058;-74
2023/12/04 02:06:25;;;;;;;0.05;0.05;;;;;;;;;;4979336;28;20055;-74
2023/12/04 02:08:51;;;;;;;0.00;0.00;;;;;;;;;;4983645;28;20502;-74
2023/12/04 02:11:17;;;;;;;0.10;0.10;;;;;;;;;;5074571;23;20063;-78
2023/12/04 02:13:44;;;;;;;9.93;4.38;;;;;;;;;;4995290;28;20091;-78
2023/12/04 02:16:12;;;;;;;0.28;0.28;;;;;;;;;;4981931;28;20058;-78
2023/12/04 02:18:38;;;;;;;0.10;0.10;;;;;;;;;;5010393;28;20054;-78
2023/12/04 02:21:05;;;;;;;0.10;0.10;;;;;;;;;;5010212;28;20066;-78
2023/12/04 02:23:31;;;;;;;0.10;0.10;;;;;;;;;;5009791;28;20054;-77
2023/12/04 02:25:59;;;;;;;0.10;0.10;;;;;;;;;;5008282;28;20082;-78
2023/12/04 02:28:27;;;;;;;0.10;0.10;;;;;;;;;;5010611;28;20093;-78
2023/12/04 02:30:58;;;;;;;0.10;0.10;;;;;;;;;;4998397;28;20137;-78
2023/12/04 02:33:25;;;;;;;0.10;0.10;;;;;;;;;;4993983;28;20078;-77
2023/12/04 02:35:53;;;;;;;0.10;0.10;;;;;;;;;;4986635;28;20051;-78
2023/12/04 02:38:19;;;;;;;0.10;0.10;;;;;;;;;;4994072;28;20057;-78
2023/12/04 02:40:46;;;;;;;0.10;0.10;;;;;;;;;;5006294;28;20058;-78
2023/12/04 02:43:12;;;;;;;0.10;0.10;;;;;;;;;;5014460;28;20062;-78
2023/12/04 02:45:39;;;;;;;0.10;0.10;;;;;;;;;;5011586;28;20054;-78
2023/12/04 02:48:05;;;;;;;0.10;0.10;;;;;;;;;;4991596;28;20062;-78
2023/12/04 02:50:32;;;;;;;0.32;0.32;;;;;;;;;;4986639;28;20054;-78
2023/12/04 02:53:01;;;;;;;0.10;0.10;;;;;;;;;;5007155;28;20595;-78
2023/12/04 02:55:28;;;;;;;0.10;0.10;;;;;;;;;;5007711;28;20058;-78
2023/12/04 02:57:55;;;;;;;0.10;0.10;;;;;;;;;;4991828;28;20539;-77
2023/12/04 03:00:21;;;;;;;0.10;0.10;;;;;;;;;;5009249;28;20065;-78
2023/12/04 03:02:48;;;;;;;0.10;0.10;;;;;;;;;;5006487;28;20696;-77
2023/12/04 03:05:14;;;;;;;0.10;0.10;;;;;;;;;;5008326;28;20086;-77
2023/12/04 03:07:41;;;;;;;0.10;0.10;;;;;;;;;;5008020;28;20058;-77
2023/12/04 03:10:08;;;;;;;0.10;0.10;;;;;;;;;;4993208;28;20505;-78
2023/12/04 03:12:34;;;;;;;0.10;0.10;;;;;;;;;;5008523;28;20089;-78
2023/12/04 03:15:01;;;;;;;0.10;0.10;;;;;;;;;;4999916;28;20564;-78
2023/12/04 03:17:27;;;;;;;0.10;0.10;;;;;;;;;;5007726;28;20113;-78
2023/12/04 03:19:54;;;;;;;0.10;0.10;;;;;;;;;;5007965;28;20061;-78
2023/12/04 03:22:20;;;;;;;0.10;0.10;;;;;;;;;;4991405;28;20086;-78
2023/12/04 03:24:47;;;;;;;0.10;0.10;;;;;;;;;;4991437;28;20431;-76
2023/12/04 03:27:13;;;;;;;0.10;0.10;;;;;;;;;;5007396;28;20059;-77
2023/12/04 03:29:40;;;;;;;0.10;0.10;;;;;;;;;;4991480;28;20054;-77
2023/12/04 03:32:06;;;;;;;0.10;0.10;;;;;;;;;;4986560;28;20058;-78
2023/12/04 03:34:33;;;;;;;0.10;0.10;;;;;;;;;;4996162;28;20058;-78
2023/12/04 03:36:59;;;;;;;0.10;0.10;;;;;;;;;;4975778;28;20058;-78
2023/12/04 03:39:26;;;;;;;0.10;0.10;;;;;;;;;;5008081;28;20116;-78
2023/12/04 03:41:53;;;;;;;0.10;0.10;;;;;;;;;;5007575;28;20575;-78
2023/12/04 03:44:19;;;;;;;0.10;0.10;;;;;;;;;;5007222;28;20058;-78
2023/12/04 03:46:45;;;;;;;0.10;0.10;;;;;;;;;;5004352;28;20069;-78
2023/12/04 03:49:12;;;;;;;0.10;0.10;;;;;;;;;;5008235;28;20121;-78
2023/12/04 03:51:38;;;;;;;0.10;0.10;;;;;;;;;;4992185;28;20435;-78
2023/12/04 03:54:05;;;;;;;0.10;0.10;;;;;;;;;;4990253;28;20081;-78
2023/12/04 03:56:31;;;;;;;1.25;1.25;;;;;;;;;;4987688;28;20138;-78
2023/12/04 03:58:57;;;;;;;0.10;0.10;;;;;;;;;;5005423;28;20112;-77
2023/12/04 04:01:24;;;;;;;3.88;3.60;;;;;;;;;;5006156;28;20054;-77
2023/12/04 04:03:51;;;;;;;0.20;0.20;;;;;;;;;;4990088;28;20892;-77
2023/12/04 04:06:17;;;;;;;0.10;0.10;;;;;;;;;;5008188;28;20062;-76
2023/12/04 04:08:43;;;;;;;0.10;0.10;;;;;;;;;;4992581;28;20054;-77
2023/12/04 04:11:11;;;;;;;0.10;0.10;;;;;;;;;;5007693;28;20058;-77
2023/12/04 04:13:39;;;;;;;0.10;0.10;;;;;;;;;;5008487;28;20127;-77
2023/12/04 04:16:06;;;;;;;0.10;0.10;;;;;;;;;;5005458;28;20539;-77
2023/12/04 04:18:32;;;;;;;2.42;2.22;;;;;;;;;;4989795;28;20064;-77
2023/12/04 04:20:59;;;;;;;0.10;0.10;;;;;;;;;;4987927;28;20057;-77
2023/12/04 04:23:25;;;;;;;0.65;0.65;;;;;;;;;;5006874;28;20061;-77
2023/12/04 04:25:52;;;;;;;0.10;0.10;;;;;;;;;;5007313;28;20105;-78
2023/12/04 04:28:18;;;;;;;0.30;0.30;;;;;;;;;;5007427;28;20063;-78
2023/12/04 04:30:44;;;;;;;0.10;0.10;;;;;;;;;;4983222;28;20527;-77
2023/12/04 04:33:11;;;;;;;0.10;0.10;;;;;;;;;;5007518;28;20060;-77
2023/12/04 04:35:37;;;;;;;0.13;0.13;;;;;;;;;;5008229;28;20066;-77
2023/12/04 04:38:04;;;;;;;0.10;0.10;;;;;;;;;;4989651;28;20142;-77
2023/12/04 04:40:30;;;;;;;0.10;0.10;;;;;;;;;;5006786;28;20058;-77
2023/12/04 04:42:57;;;;;;;0.10;0.10;;;;;;;;;;5010264;28;20112;-76
2023/12/04 04:45:23;;;;;;;0.10;0.10;;;;;;;;;;5007158;28;20152;-77
2023/12/04 04:47:50;;;;;;;0.10;0.10;;;;;;;;;;5007960;28;20062;-77
2023/12/04 04:50:16;;;;;;;0.10;0.10;;;;;;;;;;4993381;28;20066;-77
2023/12/04 04:52:43;;;;;;;0.10;0.10;;;;;;;;;;4993031;28;20058;-77
2023/12/04 04:55:09;;;;;;;0.10;0.10;;;;;;;;;;5000995;28;20508;-76
2023/12/04 04:57:36;;;;;;;0.10;0.10;;;;;;;;;;5008359;28;20049;-77
2023/12/04 05:00:03;;;;;;;0.10;0.10;;;;;;;;;;4993604;28;20062;-77
2023/12/04 05:02:29;;;;;;;0.10;0.10;;;;;;;;;;4991418;28;20086;-77
2023/12/04 05:04:55;;;;;;;0.10;0.10;;;;;;;;;;5004463;28;20066;-77
2023/12/04 05:07:22;;;;;;;0.10;0.10;;;;;;;;;;4990624;28;20539;-76
2023/12/04 05:09:48;;;;;;;0.10;0.10;;;;;;;;;;5007893;28;20050;-77
2023/12/04 05:12:15;;;;;;;2.50;2.30;;;;;;;;;;5017309;28;20422;-77
2023/12/04 05:14:41;;;;;;;0.10;0.10;;;;;;;;;;4998602;28;20501;-77
2023/12/04 05:17:07;;;;;;;0.10;0.10;;;;;;;;;;5008106;28;20086;-76
2023/12/04 05:19:34;;;;;;;0.10;0.10;;;;;;;;;;4999884;28;20066;-76
2023/12/04 05:22:02;;;;;;;0.10;0.10;;;;;;;;;;5006814;28;20055;-76
2023/12/04 05:24:29;;;;;;;2.85;2.72;;;;;;;;;;5007298;28;20050;-75
2023/12/04 05:26:55;;;;;;;0.05;0.05;;;;;;;;;;5011491;28;20528;-76
2023/12/04 05:29:21;;;;;;;0.10;0.10;;;;;;;;;;4997012;28;20051;-76
2023/12/04 05:31:48;;;;;;;0.00;0.00;;;;;;;;;;5009115;28;20141;-76
2023/12/04 05:34:14;;;;;;;0.10;0.10;;;;;;;;;;5007083;28;20066;-76
2023/12/04 05:36:41;;;;;;;0.10;0.10;;;;;;;;;;5006756;28;20050;-76
2023/12/04 05:39:08;;;;;;;0.10;0.10;;;;;;;;;;5007644;28;20580;-76
2023/12/04 05:41:34;;;;;;;0.10;0.10;;;;;;;;;;5005554;28;20066;-76
2023/12/04 05:44:00;;;;;;;0.32;0.30;;;;;;;;;;5007242;28;20086;-77
2023/12/04 05:46:27;;;;;;;0.10;0.10;;;;;;;;;;5007703;28;20222;-77
2023/12/04 05:48:54;;;;;;;0.10;0.10;;;;;;;;;;5008579;28;20054;-75
2023/12/04 05:51:20;;;;;;;0.15;0.15;;;;;;;;;;5008508;28;20440;-75
2023/12/04 05:53:46;;;;;;;0.10;0.10;;;;;;;;;;5006648;28;20082;-76
2023/12/04 05:56:18;;;;;;;0.10;0.10;;;;;;;;;;5007234;28;20110;-76
2023/12/04 05:58:44;;;;;;;0.10;0.10;;;;;;;;;;5002310;28;20058;-76
2023/12/04 06:01:10;;;;;;;0.10;0.10;;;;;;;;;;5005432;28;20128;-76
2023/12/04 06:03:37;;;;;;;0.10;0.10;;;;;;;;;;5001100;28;20046;-76
2023/12/04 06:06:04;;;;;;;0.10;0.10;;;;;;;;;;5004278;28;20140;-76
2023/12/04 06:08:31;;;;;;;0.10;0.10;;;;;;;;;;5000315;28;20055;-77
2023/12/04 06:10:57;;;;;;;0.10;0.10;;;;;;;;;;5005964;28;20145;-77
2023/12/04 06:13:24;;;;;;;0.10;0.10;;;;;;;;;;5007293;28;20476;-75
2023/12/04 06:15:50;;;;;;;0.10;0.10;;;;;;;;;;5005944;28;20109;-76
2023/12/04 06:18:16;;;;;;;0.10;0.10;;;;;;;;;;4983641;28;20649;-77
2023/12/04 06:20:43;;;;;;;0.10;0.10;;;;;;;;;;4989271;28;20065;-76
2023/12/04 06:23:09;;;;;;;1.17;1.15;;;;;;;;;;5007745;28;20058;-76
2023/12/04 06:25:38;;;;;;;0.10;0.10;;;;;;;;;;5005586;28;20153;-76
2023/12/04 06:28:04;;;;;;;0.10;0.10;;;;;;;;;;5006000;28;20077;-76
2023/12/04 06:30:31;;;;;;;0.10;0.10;;;;;;;;;;5003531;28;20069;-76
2023/12/04 06:32:57;;;;;;;0.10;0.10;;;;;;;;;;5002811;28;20064;-76
2023/12/04 06:35:24;;;;;;;0.10;0.10;;;;;;;;;;4985024;28;20066;-76
2023/12/04 06:37:53;;;;;;;0.10;0.10;;;;;;;;;;5005676;28;20058;-76
2023/12/04 06:40:49;;;;;;;0.10;0.10;;;;;;;;;;5005325;28;20054;-77
2023/12/04 06:43:43;;;;;;;;;;;;;;;;;;;;;
2023/12/04 06:46:41;;;;;;;;;;;;;;;;;;;;;
2023/12/04 06:49:24;;;;;;;0.10;0.10;;;;;;;;;;4946513;28;20458;-77
2023/12/04 06:52:00;;;;;;;0.10;0.10;;;;;;;;;;4945619;28;20561;-76
2023/12/04 06:54:40;;;;;;;0.45;0.45;;;;;;;;;;4937327;28;20068;-76
2023/12/04 06:57:06;;;;;;;0.10;0.10;;;;;;;;;;5004959;28;20058;-77
2023/12/04 06:59:33;;;;;;;2.10;2.00;;;;;;;;;;5005474;28;20190;-77
2023/12/04 07:01:59;;;;;;;1.40;1.35;;;;;;;;;;4985589;28;20051;-77
2023/12/04 07:04:26;;;;;;;0.17;0.17;;;;;;;;;;5007415;28;20489;-76
2023/12/04 07:06:52;;;;;;;0.10;0.10;;;;;;;;;;5001680;28;20054;-77
2023/12/04 07:09:20;;;;;;;0.10;0.10;;;;;;;;;;5007611;28;20566;-77
2023/12/04 07:11:46;;;;;;;0.10;0.10;;;;;;;;;;4990730;28;20054;-77
2023/12/04 07:14:13;;;;;;;0.10;0.10;;;;;;;;;;4992088;28;20058;-77
2023/12/04 07:16:42;;;;;;;0.10;0.10;;;;;;;;;;5008329;28;20055;-77
2023/12/04 07:19:10;;;;;;;0.10;0.10;;;;;;;;;;4988561;28;20054;-78
2023/12/04 07:21:37;;;;;;;0.10;0.10;;;;;;;;;;4997355;28;20513;-77
2023/12/04 07:24:03;;;;;;;0.10;0.10;;;;;;;;;;5002126;28;20058;-77
2023/12/04 07:26:30;;;;;;;0.10;0.10;;;;;;;;;;4990784;28;20054;-78
2023/12/04 07:28:57;;;;;;;0.10;0.10;;;;;;;;;;4987144;28;20054;-77
2023/12/04 07:31:23;;;;;;;0.10;0.10;;;;;;;;;;5006190;28;20144;-77
2023/12/04 07:33:50;;;;;;;0.10;0.10;;;;;;;;;;5006086;28;20082;-77
2023/12/04 07:36:16;;;;;;;0.10;0.10;;;;;;;;;;5007285;28;20086;-76
2023/12/04 07:38:43;;;;;;;0.10;0.10;;;;;;;;;;5006144;28;20124;-77
2023/12/04 07:41:09;;;;;;;0.10;0.10;;;;;;;;;;5003874;28;20137;-77
2023/12/04 07:43:36;;;;;;;0.10;0.10;;;;;;;;;;5010855;28;20050;-77
2023/12/04 07:46:03;;;;;;;0.10;0.10;;;;;;;;;;5006224;28;20121;-77
2023/12/04 07:48:30;;;;;;;0.10;0.10;;;;;;;;;;5004128;28;20152;-77
2023/12/04 07:50:56;;;;;;;0.10;0.10;;;;;;;;;;5004106;28;20137;-77
2023/12/04 07:53:23;;;;;;;0.20;0.20;;;;;;;;;;5006233;28;20719;-77
2023/12/04 07:55:51;;;;;;;0.10;0.10;;;;;;;;;;5007548;28;20122;-77
2023/12/04 07:58:17;;;;;;;0.10;0.10;;;;;;;;;;4997292;28;20523;-78
2023/12/04 08:00:44;;;;;;;0.10;0.10;;;;;;;;;;5002479;28;20530;-77
2023/12/04 08:03:10;;;;;;;0.10;0.10;;;;;;;;;;5004216;28;20058;-77
2023/12/04 08:05:37;;;;;;;0.10;0.10;;;;;;;;;;5006963;28;20068;-78
2023/12/04 08:08:03;;;;;;;0.17;0.17;;;;;;;;;;4985530;28;20066;-77
2023/12/04 08:10:30;;;;;;;0.10;0.10;;;;;;;;;;5006293;28;20132;-77
2023/12/04 08:12:56;;;;;;;0.10;0.10;;;;;;;;;;5005647;28;20058;-77
2023/12/04 08:15:23;;;;;;;0.10;0.10;;;;;;;;;;5004981;28;20073;-77
2023/12/04 08:17:52;;;;;;;0.10;0.10;;;;;;;;;;5005139;28;20504;-78
2023/12/04 08:20:22;;;;;;;0.10;0.10;;;;;;;;;;5083653;23;20084;-74
2023/12/04 08:22:59;;;;;;;0.20;0.20;;;;;;;;;;5023293;28;20050;-74
2023/12/04 08:25:25;;;;;;;0.10;0.10;;;;;;;;;;5023562;28;20053;-74
2023/12/04 08:27:52;;;;;;;0.10;0.10;;;;;;;;;;5038862;28;20054;-74
2023/12/04 08:30:18;;;;;;;0.10;0.10;;;;;;;;;;5020957;28;20054;-74
2023/12/04 08:32:45;;;;;;;0.00;0.00;;;;;;;;;;5017408;28;20053;-74
2023/12/04 08:35:11;;;;;;;0.10;0.10;;;;;;;;;;5025517;28;20512;-74
2023/12/04 08:37:38;;;;;;;0.10;0.10;;;;;;;;;;5025933;28;20159;-74
2023/12/04 08:40:04;;;;;;;0.10;0.10;;;;;;;;;;5023197;28;20155;-74
2023/12/04 08:42:31;;;;;;;0.10;0.10;;;;;;;;;;5024026;28;20050;-74
2023/12/04 08:44:57;;;;;;;0.10;0.10;;;;;;;;;;5036704;28;20133;-74
2023/12/04 08:47:24;;;;;;;0.15;0.15;;;;;;;;;;5025967;28;20144;-74
2023/12/04 08:49:50;;;;;;;0.10;0.10;;;;;;;;;;5025220;28;20058;-74
2023/12/04 08:52:17;;;;;;;0.10;0.10;;;;;;;;;;5025209;28;21001;-74
2023/12/04 08:54:43;;;;;;;0.10;0.10;;;;;;;;;;5022587;28;20120;-74
2023/12/04 08:57:10;;;;;;;0.10;0.10;;;;;;;;;;5029295;28;20224;-74
2023/12/04 08:59:36;;;;;;;0.10;0.10;;;;;;;;;;5023505;28;20750;-74
2023/12/04 09:02:03;;;;;;;0.10;0.10;;;;;;;;;;5025047;28;20050;-74
2023/12/04 09:04:33;;;;;;;0.10;0.10;;;;;;;;;;5021717;28;20883;-74
2023/12/04 09:07:00;;;;;;;0.10;0.10;;;;;;;;;;5019639;28;20058;-74
2023/12/04 09:09:46;;;;;;;0.10;0.10;;;;;;;;;;5038371;28;20136;-74
2023/12/04 09:12:13;;;;;;;0.10;0.10;;;;;;;;;;5023790;28;20502;-74
2023/12/04 09:14:40;;;;;;;0.10;0.10;;;;;;;;;;5018511;28;20086;-74
2023/12/04 09:17:06;;;;;;;0.10;0.10;;;;;;;;;;5038904;28;20053;-74
2023/12/04 09:19:33;;;;;;;3.10;2.75;;;;;;;;;;5036854;28;20058;-74
2023/12/04 09:21:59;;;;;;;0.10;0.10;;;;;;;;;;5019897;28;20049;-74
2023/12/04 09:24:38;;;;;;;0.10;0.10;;;;;;;;;;5022628;28;20514;-74
2023/12/04 09:27:06;;;;;;;0.10;0.10;;;;;;;;;;5023976;28;20058;-74
2023/12/04 09:29:33;;;;;;;0.10;0.10;;;;;;;;;;5014875;28;20527;-74
2023/12/04 09:32:00;;;;;;;0.10;0.10;;;;;;;;;;5019151;28;20153;-74
2023/12/04 09:34:27;;;;;;;0.10;0.10;;;;;;;;;;5022919;28;20482;-74
2023/12/04 09:36:54;;;;;;;0.10;0.10;;;;;;;;;;5035943;28;20050;-74
2023/12/04 09:39:25;;;;;;;0.10;0.10;;;;;;;;;;5014940;28;20060;-74
2023/12/04 09:41:52;;;;;;;0.10;0.10;;;;;;;;;;5020800;28;20069;-74
2023/12/04 09:44:19;;;;;;;0.25;0.25;;;;;;;;;;5038450;28;20128;-74
2023/12/04 09:46:45;;;;;;;0.10;0.10;;;;;;;;;;5020875;28;20094;-75
2023/12/04 09:49:12;;;;;;;0.10;0.10;;;;;;;;;;5011074;28;20051;-74
2023/12/04 09:51:39;;;;;;;0.10;0.10;;;;;;;;;;5022552;28;20054;-74
2023/12/04 09:54:06;;;;;;;0.20;0.20;;;;;;;;;;5025543;28;20530;-75
2023/12/04 09:56:33;;;;;;;0.10;0.10;;;;;;;;;;5020624;28;20117;-74
2023/12/04 09:59:00;;;;;;;0.10;0.10;;;;;;;;;;5015833;28;20064;-75
2023/12/04 10:01:28;;;;;;;5.55;3.20;;;;;;;;;;5022387;28;20054;-74
2023/12/04 10:03:57;;;;;;;0.10;0.10;;;;;;;;;;5020822;28;20053;-74
2023/12/04 10:06:26;;;;;;;0.10;0.10;;;;;;;;;;5016395;28;20054;-74
2023/12/04 10:08:52;;;;;;;0.10;0.10;;;;;;;;;;5015369;28;20128;-74
2023/12/04 10:11:18;;;;;;;0.10;0.10;;;;;;;;;;5021746;28;20919;-74
2023/12/04 10:13:45;;;;;;;0.10;0.10;;;;;;;;;;5022072;28;20196;-74
2023/12/04 10:16:35;;;;;;;0.10;0.10;;;;;;;;;;5022804;28;20058;-74
2023/12/04 10:19:21;;;;;;;0.10;0.10;;;;;;;;;;5024166;28;21077;-75
2023/12/04 10:21:48;;;;;;;0.10;0.10;;;;;;;;;;5028330;28;20058;-75
2023/12/04 10:24:31;;;;;;;0.10;0.10;;;;;;;;;;5027513;28;20050;-74
2023/12/04 10:26:58;;;;;;;0.10;0.10;;;;;;;;;;5025937;28;20163;-74
2023/12/04 10:29:29;;;;;;;0.35;0.35;;;;;;;;;;5018310;28;20077;-75
2023/12/04 10:31:58;;;;;;;0.10;0.10;;;;;;;;;;5020691;28;20097;-74
2023/12/04 10:34:26;;;;;;;0.10;0.10;;;;;;;;;;5024328;28;20132;-74
2023/12/04 10:36:53;;;;;;;0.10;0.10;;;;;;;;;;5026525;28;20053;-75
2023/12/04 10:39:20;;;;;;;0.10;0.10;;;;;;;;;;5019462;28;20141;-74
2023/12/04 10:41:58;;;;;;;0.10;0.10;;;;;;;;;;5026006;28;20056;-74
2023/12/04 10:44:24;;;;;;;0.10;0.10;;;;;;;;;;5026879;28;20066;-74
2023/12/04 10:46:52;;;;;;;0.10;0.10;;;;;;;;;;5019384;28;20058;-74
2023/12/04 10:49:18;;;;;;;1.13;1.08;;;;;;;;;;5026035;28;20424;-74
2023/12/04 10:51:46;;;;;;;0.10;0.10;;;;;;;;;;5023642;28;20145;-74
2023/12/04 10:54:12;;;;;;;0.40;0.40;;;;;;;;;;5021348;28;20534;-74
2023/12/04 10:56:40;;;;;;;0.10;0.10;;;;;;;;;;5028505;28;20082;-74
2023/12/04 10:59:15;;;;;;;0.10;0.10;;;;;;;;;;5025984;28;20591;-74
2023/12/04 11:01:44;;;;;;;0.10;0.10;;;;;;;;;;5019852;28;20159;-74
2023/12/04 11:04:17;;;;;;;0.10;0.10;;;;;;;;;;5021452;28;20083;-74
2023/12/04 11:06:45;;;;;;;0.10;0.10;;;;;;;;;;5019845;28;20473;-74
2023/12/04 11:09:12;;;;;;;0.10;0.10;;;;;;;;;;5017379;28;20064;-74
2023/12/04 11:11:40;;;;;;;0.10;0.10;;;;;;;;;;5018258;28;20057;-74
2023/12/04 11:14:08;;;;;;;0.10;0.10;;;;;;;;;;5016571;28;20054;-74
2023/12/04 11:16:42;;;;;;;0.10;0.10;;;;;;;;;;5034245;28;20145;-74
2023/12/04 11:19:17;;;;;;;0.10;0.10;;;;;;;;;;5019413;28;20088;-74
2023/12/04 11:21:45;;;;;;;0.45;0.45;;;;;;;;;;5018425;28;20061;-74
2023/12/04 11:24:12;;;;;;;1.20;1.10;;;;;;;;;;5021305;28;20053;-74
2023/12/04 11:26:40;;;;;;;0.20;0.20;;;;;;;;;;5017516;28;20057;-74
2023/12/04 11:29:08;;;;;;;0.10;0.10;;;;;;;;;;5023276;28;20054;-74
2023/12/04 11:31:35;;;;;;;0.10;0.10;;;;;;;;;;5023784;28;20054;-74
2023/12/04 11:34:03;;;;;;;0.10;0.10;;;;;;;;;;5037229;28;20054;-74
2023/12/04 11:36:29;;;;;;;0.10;0.10;;;;;;;;;;5024919;28;20050;-74
2023/12/04 11:38:56;;;;;;;0.57;0.57;;;;;;;;;;5024609;28;20124;-74
2023/12/04 11:41:23;;;;;;;0.10;0.10;;;;;;;;;;5020308;28;20464;-74
2023/12/04 11:43:55;;;;;;;0.10;0.10;;;;;;;;;;5026634;28;20050;-74
2023/12/04 11:46:23;;;;;;;0.10;0.10;;;;;;;;;;5019276;28;20064;-75
2023/12/04 11:48:50;;;;;;;0.10;0.10;;;;;;;;;;5023325;28;20057;-77
2023/12/04 11:51:35;;;;;;;0.10;0.10;;;;;;;;;;5024066;28;21082;-72
2023/12/04 11:54:04;;;;;;;0.10;0.10;;;;;;;;;;5022525;28;20054;-73
2023/12/04 11:56:31;;;;;;;0.10;0.10;;;;;;;;;;5021089;28;20149;-72
2023/12/04 11:59:04;;;;;;;0.10;0.10;;;;;;;;;;5018563;28;20061;-73
2023/12/04 12:01:39;;;;;;;0.10;0.10;;;;;;;;;;5019985;28;20058;-73
2023/12/04 12:04:06;;;;;;;0.10;0.10;;;;;;;;;;5017651;28;20049;-73
2023/12/04 12:06:33;;;;;;;0.10;0.10;;;;;;;;;;5023087;28;20050;-72
2023/12/04 12:08:59;;;;;;;0.15;0.15;;;;;;;;;;5025557;28;20064;-72
2023/12/04 12:11:26;;;;;;;0.10;0.10;;;;;;;;;;5025885;28;20165;-72
2023/12/04 12:13:55;;;;;;;0.57;0.57;;;;;;;;;;5024120;28;20136;-72
2023/12/04 12:16:21;;;;;;;0.10;0.10;;;;;;;;;;5024962;28;20523;-72
2023/12/04 12:18:48;;;;;;;1.00;0.82;;;;;;;;;;5019322;28;20058;-72
2023/12/04 12:21:15;;;;;;;0.10;0.10;;;;;;;;;;5020747;28;20088;-73
2023/12/04 12:23:41;;;;;;;0.10;0.10;;;;;;;;;;5023146;28;20086;-73
2023/12/04 12:26:08;;;;;;;0.10;0.10;;;;;;;;;;5024878;28;20140;-72
2023/12/04 12:28:35;;;;;;;0.65;0.55;;;;;;;;;;5018614;28;20058;-72
2023/12/04 12:31:03;;;;;;;0.10;0.10;;;;;;;;;;5024493;28;20056;-72
2023/12/04 12:33:29;;;;;;;0.10;0.10;;;;;;;;;;5022545;28;20057;-72
2023/12/04 12:35:57;;;;;;;0.38;0.38;;;;;;;;;;5015957;28;20058;-72
2023/12/04 12:38:30;;;;;;;0.10;0.10;;;;;;;;;;5023653;28;20108;-72
2023/12/04 12:40:56;;;;;;;4.95;3.63;;;;;;;;;;5039237;28;20579;-72
2023/12/04 12:43:23;;;;;;;0.10;0.10;;;;;;;;;;5022284;28;20046;-72
2023/12/04 12:45:50;;;;;;;0.43;0.43;;;;;;;;;;5021942;28;20583;-72
2023/12/04 12:48:17;;;;;;;2.17;1.77;;;;;;;;;;5020574;28;20084;-72
2023/12/04 12:50:44;;;;;;;0.10;0.10;;;;;;;;;;5025679;28;20050;-73
2023/12/04 12:53:11;;;;;;;0.10;0.10;;;;;;;;;;5024568;28;20073;-73
2023/12/04 12:55:40;;;;;;;0.10;0.10;;;;;;;;;;5028435;28;20520;-72
2023/12/04 12:58:06;;;;;;;0.77;0.77;;;;;;;;;;5026753;28;20076;-72
2023/12/04 13:00:34;;;;;;;0.63;0.63;;;;;;;;;;5027508;28;20902;-72
2023/12/04 13:03:01;;;;;;;0.10;0.10;;;;;;;;;;5027489;28;20056;-72
2023/12/04 13:05:28;;;;;;;0.10;0.10;;;;;;;;;;5026976;28;20058;-73
2023/12/04 13:07:58;;;;;;;0.10;0.10;;;;;;;;;;5015017;28;20154;-72
2023/12/04 13:10:24;;;;;;;0.10;0.10;;;;;;;;;;5026044;28;20129;-73
2023/12/04 13:12:53;;;;;;;0.10;0.10;;;;;;;;;;5028023;28;20061;-73
2023/12/04 13:15:20;;;;;;;0.10;0.10;;;;;;;;;;5028129;28;20085;-72
2023/12/04 13:17:46;;;;;;;1.00;0.93;;;;;;;;;;5025235;28;20054;-72
2023/12/04 13:20:13;;;;;;;0.10;0.10;;;;;;;;;;5024415;28;20053;-73
2023/12/04 13:22:40;;;;;;;0.10;0.10;;;;;;;;;;5026384;28;20797;-73
2023/12/04 13:25:08;;;;;;;0.10;0.10;;;;;;;;;;5027408;28;20065;-73
2023/12/04 13:27:36;;;;;;;0.10;0.10;;;;;;;;;;5027516;28;20056;-73
2023/12/04 13:30:02;;;;;;;0.10;0.10;;;;;;;;;;5027359;28;20050;-73
2023/12/04 13:32:28;;;;;;;0.20;0.20;;;;;;;;;;5026448;28;20801;-73
2023/12/04 13:34:55;;;;;;;0.10;0.10;;;;;;;;;;5036681;28;20060;-73
2023/12/04 13:37:23;;;;;;;0.10;0.10;;;;;;;;;;5025748;28;20054;-73
2023/12/04 13:39:57;;;;;;;0.10;0.10;;;;;;;;;;5010995;28;20058;-73
2023/12/04 13:45:09;;;;;;;0.75;0.75;;;;;;;;;;5015963;28;20053;-73
2023/12/04 13:47:36;;;;;;;0.47;0.47;;;;;;;;;;5017030;28;20085;-74
2023/12/04 13:50:02;;;;;;;0.10;0.10;;;;;;;;;;5023027;28;20050;-73
2023/12/04 13:52:33;;;;;;;0.10;0.10;;;;;;;;;;5022363;28;21022;-73
2023/12/04 13:55:00;;;;;;;0.10;0.10;;;;;;;;;;5024125;28;20108;-73
2023/12/04 13:57:28;;;;;;;0.10;0.10;;;;;;;;;;5017131;28;20057;-73
2023/12/04 13:59:57;;;;;;;0.10;0.10;;;;;;;;;;5026336;28;20149;-73
2023/12/04 14:02:24;;;;;;;0.38;0.38;;;;;;;;;;5028019;28;20511;-73
2023/12/04 14:04:51;;;;;;;0.10;0.10;;;;;;;;;;5024743;28;20136;-73
2023/12/04 14:07:18;;;;;;;0.20;0.20;;;;;;;;;;5027813;28;20116;-73
2023/12/04 14:09:45;;;;;;;0.10;0.10;;;;;;;;;;5027620;28;20149;-73
2023/12/04 14:12:11;;;;;;;0.10;0.10;;;;;;;;;;5020628;28;20152;-73
2023/12/04 14:14:38;;;;;;;0.10;0.10;;;;;;;;;;5024639;28;20054;-73
2023/12/04 14:17:05;;;;;;;0.10;0.10;;;;;;;;;;5023178;28;21047;-73
2023/12/04 14:22:09;;;;;;;0.10;0.10;;;;;;;;;;4964999;28;20740;-75
2023/12/04 14:24:37;;;;;;;0.10;0.10;;;;;;;;;;4935705;28;20052;-75
2023/12/04 14:27:05;;;;;;;0.10;0.10;;;;;;;;;;4963169;28;20551;-75
2023/12/04 14:29:32;;;;;;;0.10;0.10;;;;;;;;;;4946884;28;20064;-77
2023/12/04 14:31:58;;;;;;;0.40;0.40;;;;;;;;;;4950246;28;20059;-75
2023/12/04 14:34:25;;;;;;;0.10;0.10;;;;;;;;;;4947347;28;20133;-75
2023/12/04 14:36:52;;;;;;;0.10;0.10;;;;;;;;;;4948540;28;20059;-75
2023/12/04 14:39:18;;;;;;;0.10;0.10;;;;;;;;;;4949735;28;20072;-76
2023/12/04 14:41:45;;;;;;;0.10;0.10;;;;;;;;;;4949766;28;20062;-75
2023/12/04 14:44:11;;;;;;;0.10;0.10;;;;;;;;;;4947874;28;20056;-76
2023/12/04 14:46:38;;;;;;;0.10;0.10;;;;;;;;;;4950472;28;20131;-76
2023/12/04 14:49:04;;;;;;;0.10;0.10;;;;;;;;;;4964493;28;20070;-75
2023/12/04 14:51:31;;;;;;;0.10;0.10;;;;;;;;;;4947124;28;20052;-76
2023/12/04 14:54:14;;;;;;;0.10;0.10;;;;;;;;;;4951324;28;20091;-76